Time;durP1;ratioP1;P1;durP2;ratioP2;P2;SDS_P1;SDS_P2;PMS_P1;PMS_P2;Temp;Humidity;BMP_temperature;BMP_pressure;BME280_temperature;BME280_humidity;BME280_pressure;Samples;Min_cycle;Max_cycle;Signal;HPM_P1;HPM_P2
2022/06/18 00:00:53;;;;;;;2.02;1.62;;;;;;;16.45;61.64;101437.73;1758398;80;25736;-56
2022/06/18 00:03:20;;;;;;;4.22;1.80;;;;;;;16.49;61.34;101437.77;1715414;82;27065;-56
2022/06/18 00:05:51;;;;;;;3.83;1.80;;;;;;;16.51;61.37;101434.40;1714195;83;25758;-56
2022/06/18 00:08:23;;;;;;;3.25;1.60;;;;;;;16.55;61.26;101440.36;1716671;83;27532;-56
2022/06/18 00:13:39;;;;;;;4.03;1.60;;;;;;;16.58;61.11;101442.77;1712598;82;26139;-56
2022/06/18 00:13:41;;;;;;;6.05;2.22;;;;;;;16.58;61.02;101453.64;1707114;83;25909;-56
2022/06/18 00:16:16;;;;;;;8.23;2.17;;;;;;;16.59;61.00;101452.59;1716156;83;25740;-57
2022/06/18 00:18:43;;;;;;;4.55;1.90;;;;;;;16.57;61.07;101449.21;1709757;83;25782;-56
2022/06/18 00:21:15;;;;;;;2.30;1.60;;;;;;;16.49;61.13;101451.35;1712773;83;27438;-57
2022/06/18 00:23:42;;;;;;;3.92;1.75;;;;;;;16.50;61.07;101450.34;1716840;81;25801;-57
2022/06/18 00:26:11;;;;;;;4.03;2.08;;;;;;;16.52;60.96;101449.69;1717650;81;25790;-56
2022/06/18 00:28:38;;;;;;;5.55;2.02;;;;;;;16.53;60.76;101445.09;1712576;82;26087;-57
2022/06/18 00:31:05;;;;;;;7.15;2.25;;;;;;;16.50;60.75;101448.98;1708766;82;25949;-56
2022/06/18 00:33:32;;;;;;;5.40;1.80;;;;;;;16.51;60.74;101453.41;1710733;82;28352;-56
2022/06/18 00:36:03;;;;;;;5.75;1.85;;;;;;;16.52;60.64;101452.41;1710640;83;25786;-56
2022/06/18 00:38:41;;;;;;;2.65;1.60;;;;;;;16.54;60.52;101460.37;1713159;83;25881;-56
2022/06/18 00:41:12;;;;;;;3.77;1.67;;;;;;;16.53;60.45;101454.11;1772664;80;25909;-56
2022/06/18 00:44:00;;;;;;;5.22;2.08;;;;;;;16.53;60.36;101448.67;1773910;80;25695;-56
2022/06/18 00:46:44;;;;;;;5.05;2.30;;;;;;;16.52;60.46;101454.25;1759430;80;28504;-56
2022/06/18 00:49:31;;;;;;;7.53;2.00;;;;;;;16.49;60.61;101448.63;1781783;80;25790;-56
2022/06/18 00:52:06;;;;;;;5.83;2.02;;;;;;;16.45;60.67;101449.11;1775625;80;25450;-57
2022/06/18 00:54:47;;;;;;;3.45;1.95;;;;;;;16.33;60.75;101443.09;1725661;80;26251;-57
2022/06/18 00:57:22;;;;;;;4.25;2.10;;;;;;;16.24;60.99;101440.80;1781653;80;25842;-56
2022/06/18 00:59:54;;;;;;;5.47;2.58;;;;;;;16.14;61.39;101446.33;1773949;80;27454;-56
2022/06/18 01:02:26;;;;;;;5.40;2.12;;;;;;;16.07;61.71;101443.37;1725068;79;25752;-57
2022/06/18 01:04:53;;;;;;;3.02;1.55;;;;;;;16.06;61.79;101445.73;1714562;83;25718;-56
2022/06/18 01:07:36;;;;;;;5.80;2.15;;;;;;;16.03;61.88;101443.36;1713532;83;26092;-57
2022/06/18 01:10:09;;;;;;;3.42;2.02;;;;;;;16.00;62.30;101445.53;1712954;82;26485;-57
2022/06/18 01:12:36;;;;;;;4.77;1.80;;;;;;;16.01;62.21;101445.85;1709156;83;27477;-56
2022/06/18 01:15:09;;;;;;;5.20;1.90;;;;;;;16.01;62.33;101444.50;1716876;82;25734;-56
2022/06/18 01:17:40;;;;;;;5.58;2.30;;;;;;;15.96;62.55;101441.77;1713834;82;25764;-56
2022/06/18 01:20:10;;;;;;;5.67;1.95;;;;;;;16.00;62.84;101444.17;1713882;81;26095;-56
2022/06/18 01:22:54;;;;;;;3.95;1.80;;;;;;;16.07;62.56;101446.61;1714572;82;25871;-57
2022/06/18 01:25:25;;;;;;;7.78;1.80;;;;;;;16.11;62.72;101446.14;1717160;82;27474;-56
2022/06/18 01:27:54;;;;;;;6.75;2.50;;;;;;;16.11;62.68;101434.41;1705662;83;25771;-56
2022/06/18 01:30:28;;;;;;;9.13;1.90;;;;;;;16.14;62.58;101438.70;1710466;82;26524;-56
2022/06/18 01:32:56;;;;;;;15.58;2.25;;;;;;;16.17;62.39;101442.44;1715017;83;27269;-56
2022/06/18 01:35:25;;;;;;;6.70;2.87;;;;;;;16.17;62.29;101441.95;1714454;81;25733;-57
2022/06/18 01:37:59;;;;;;;4.87;2.30;;;;;;;16.18;62.36;101446.34;1716595;82;27620;-56
2022/06/18 01:40:51;;;;;;;8.80;2.55;;;;;;;16.18;62.13;101439.56;1742977;80;25901;-56
2022/06/18 01:43:21;;;;;;;3.50;2.50;;;;;;;16.18;62.15;101440.08;1761505;80;25875;-56
2022/06/18 01:45:58;;;;;;;8.53;2.12;;;;;;;16.19;62.17;101450.77;1776664;80;25784;-56
2022/06/18 01:48:34;;;;;;;9.73;2.00;;;;;;;16.16;62.04;101447.03;1763371;79;25924;-56
2022/06/18 01:51:17;;;;;;;4.45;2.20;;;;;;;16.07;62.16;101450.68;1757185;79;27489;-56
2022/06/18 01:53:56;;;;;;;4.07;1.90;;;;;;;15.94;62.69;101445.12;1774090;80;25743;-56
2022/06/18 01:56:31;;;;;;;8.10;2.58;;;;;;;15.94;62.69;101445.12;1754966;80;25456;-56
2022/06/18 01:59:19;;;;;;;6.20;2.00;;;;;;;15.96;62.79;101452.62;1743116;80;26089;-56
2022/06/18 02:01:49;;;;;;;7.20;2.25;;;;;;;15.93;62.92;101448.84;1739125;80;25792;-56
2022/06/18 02:04:20;;;;;;;3.80;2.45;;;;;;;15.90;62.88;101453.25;1713427;82;28293;-57
2022/06/18 02:06:52;;;;;;;6.97;1.98;;;;;;;15.90;62.79;101456.44;1705603;82;25912;-56
2022/06/18 02:09:47;;;;;;;7.75;2.40;;;;;;;15.88;62.82;101453.89;1713948;83;25702;-55
2022/06/18 02:12:21;;;;;;;6.08;1.80;;;;;;;15.86;62.66;101453.70;1714338;82;26096;-56
2022/06/18 02:14:57;;;;;;;6.22;2.12;;;;;;;15.83;62.76;101464.31;1717043;82;25958;-56
2022/06/18 02:17:26;;;;;;;9.73;2.52;;;;;;;15.78;62.88;101467.48;1717792;83;27461;-57
2022/06/18 02:20:13;;;;;;;6.85;1.90;;;;;;;15.75;63.37;101462.87;1712898;82;25710;-56
2022/06/18 02:22:50;;;;;;;9.75;2.25;;;;;;;15.69;63.44;101468.40;1713221;82;25782;-56
2022/06/18 02:25:22;;;;;;;7.72;2.87;;;;;;;15.59;63.64;101471.19;1691771;82;26175;-56
2022/06/18 02:27:55;;;;;;;13.78;2.75;;;;;;;15.56;63.70;101474.19;1714746;82;26169;-56
2022/06/18 02:30:26;;;;;;;6.55;2.30;;;;;;;15.56;63.91;101467.92;1712323;82;27516;-56
2022/06/18 02:33:16;;;;;;;6.95;2.42;;;;;;;15.57;64.14;101475.06;1715142;83;25933;-57
2022/06/18 02:35:43;;;;;;;6.35;2.72;;;;;;;15.56;64.19;101477.42;1712402;82;25684;-56
2022/06/18 02:38:21;;;;;;;11.08;2.50;;;;;;;15.57;64.26;101477.77;1718792;82;26176;-57
2022/06/18 02:40:49;;;;;;;7.08;2.30;;;;;;;15.57;64.38;101475.90;1742801;80;26157;-56
2022/06/18 02:43:19;;;;;;;4.97;2.75;;;;;;;15.58;64.45;101478.13;1760121;80;27457;-56
2022/06/18 02:45:52;;;;;;;7.40;2.92;;;;;;;15.55;64.60;101481.13;1766160;80;26444;-57
2022/06/18 02:48:27;;;;;;;3.40;1.92;;;;;;;15.47;65.12;101481.39;1762258;79;25735;-55
2022/06/18 02:50:58;;;;;;;4.83;2.42;;;;;;;15.36;65.09;101471.26;1758553;80;26092;-56
2022/06/18 02:53:28;;;;;;;6.25;2.45;;;;;;;15.26;65.41;101468.58;1780138;80;25767;-56
2022/06/18 02:56:00;;;;;;;4.83;2.65;;;;;;;15.24;65.75;101471.45;1781629;80;27418;-57
2022/06/18 02:58:35;;;;;;;2.47;2.00;;;;;;;15.24;65.81;101470.61;1725674;80;25549;-56
2022/06/18 03:01:19;;;;;;;8.85;3.25;;;;;;;15.30;65.49;101477.61;1746571;80;25814;-56
2022/06/18 03:03:51;;;;;;;4.47;2.45;;;;;;;15.39;65.53;101480.42;1733823;81;27063;-56
2022/06/18 03:06:22;;;;;;;4.03;2.52;;;;;;;15.43;65.36;101481.33;1739184;81;25778;-56
2022/06/18 03:08:49;;;;;;;3.85;2.40;;;;;;;15.45;65.19;101480.69;1727091;81;27660;-56
2022/06/18 03:14:09;;;;;;;7.60;2.75;;;;;;;15.39;65.21;101479.94;1724274;81;25864;-55
2022/06/18 03:16:36;;;;;;;6.17;2.15;;;;;;;15.44;65.62;101475.42;1723370;81;26937;-57
2022/06/18 03:19:05;;;;;;;6.83;2.52;;;;;;;15.37;65.97;101477.87;1726758;81;25875;-56
2022/06/18 03:21:40;;;;;;;7.10;2.40;;;;;;;15.26;66.24;101478.94;1730025;81;27436;-56
2022/06/18 03:24:08;;;;;;;3.65;2.10;;;;;;;15.25;66.23;101484.48;1735038;81;25630;-57
2022/06/18 03:26:37;;;;;;;6.92;2.22;;;;;;;15.36;66.34;101488.88;1741586;81;25829;-57
2022/06/18 03:29:08;;;;;;;3.67;2.30;;;;;;;15.44;66.03;101487.63;1740856;82;27063;-56
2022/06/18 03:31:36;;;;;;;7.90;2.90;;;;;;;15.58;65.78;101484.91;1744998;80;25808;-57
2022/06/18 03:34:05;;;;;;;4.05;2.17;;;;;;;15.68;65.43;101480.28;1728704;80;28422;-56
2022/06/18 03:36:33;;;;;;;8.08;2.70;;;;;;;15.78;65.48;101482.41;1746700;81;25807;-56
2022/06/18 03:39:00;;;;;;;4.12;2.58;;;;;;;15.84;65.04;101479.61;1726155;81;25519;-55
2022/06/18 03:41:29;;;;;;;4.10;2.27;;;;;;;15.92;64.92;101490.55;1720815;82;26775;-56
2022/06/18 03:43:57;;;;;;;6.00;2.60;;;;;;;15.99;64.89;101485.37;1714256;82;25770;-57
2022/06/18 03:46:24;;;;;;;6.10;2.67;;;;;;;16.05;64.70;101481.19;1735843;80;28318;-56
2022/06/18 03:49:04;;;;;;;7.42;2.40;;;;;;;16.09;64.69;101485.31;1769363;80;25971;-56
2022/06/18 03:51:34;;;;;;;7.42;2.55;;;;;;;16.10;64.47;101480.20;1768119;80;25741;-56
2022/06/18 03:54:03;;;;;;;5.15;2.85;;;;;;;16.18;64.50;101486.22;1762071;80;26821;-56
2022/06/18 03:56:32;;;;;;;8.50;2.77;;;;;;;16.23;64.46;101487.47;1754524;80;25733;-56
2022/06/18 03:59:01;;;;;;;7.50;2.50;;;;;;;16.21;64.02;101489.48;1756331;79;27483;-56
2022/06/18 04:01:32;;;;;;;6.47;2.60;;;;;;;16.19;63.97;101487.41;1737430;81;25780;-55
2022/06/18 04:04:00;;;;;;;7.20;3.50;;;;;;;16.14;64.19;101492.98;1755256;79;25630;-56
2022/06/18 04:06:32;;;;;;;10.80;2.67;;;;;;;16.09;64.38;101494.29;1763598;78;26262;-56
2022/06/18 04:09:02;;;;;;;4.15;2.85;;;;;;;15.99;64.87;101500.81;1767239;79;25750;-56
2022/06/18 04:11:31;;;;;;;5.55;2.70;;;;;;;15.90;65.12;101499.38;1755964;79;27448;-56
2022/06/18 04:13:59;;;;;;;7.12;2.80;;;;;;;15.83;65.58;101486.01;1762169;78;25849;-56
2022/06/18 04:16:40;;;;;;;8.00;3.30;;;;;;;15.83;65.56;101498.22;1780274;80;26572;-56
2022/06/18 04:19:14;;;;;;;6.85;3.58;;;;;;;15.81;65.71;101498.90;1767495;78;26920;-56
2022/06/18 04:21:42;;;;;;;11.18;2.85;;;;;;;15.84;65.71;101501.31;1753845;78;25789;-56
2022/06/18 04:24:09;;;;;;;7.58;3.62;;;;;;;15.88;65.79;101499.15;1777123;80;27534;-56
2022/06/18 04:26:38;;;;;;;9.50;2.47;;;;;;;15.91;66.18;101499.69;1759182;78;25429;-57
2022/06/18 04:29:05;;;;;;;5.10;2.12;;;;;;;15.95;66.28;101505.70;1763790;80;25754;-57
2022/06/18 04:31:32;;;;;;;4.80;2.70;;;;;;;16.03;66.15;101503.55;1781491;80;26106;-56
2022/06/18 04:33:59;;;;;;;5.70;1.98;;;;;;;16.10;66.07;101504.63;1760555;78;25799;-57
2022/06/18 04:36:38;;;;;;;7.62;2.50;;;;;;;16.15;66.06;101502.32;1753238;79;27454;-57
2022/06/18 04:39:07;;;;;;;10.60;2.45;;;;;;;16.26;66.22;101504.81;1746031;80;25817;-56
2022/06/18 04:41:42;;;;;;;6.17;2.60;;;;;;;16.32;66.15;101502.47;1757868;80;25740;-56
2022/06/18 04:44:14;;;;;;;3.62;2.42;;;;;;;16.33;66.15;101502.30;1713626;83;26750;-56
2022/06/18 04:46:43;;;;;;;10.90;2.55;;;;;;;16.32;66.28;101505.19;1711363;82;25687;-57
2022/06/18 04:49:10;;;;;;;6.92;2.50;;;;;;;16.32;66.53;101512.80;1706964;82;27567;-57
2022/06/18 04:51:37;;;;;;;2.20;2.00;;;;;;;16.34;66.29;101511.31;1708420;83;25803;-56
2022/06/18 04:54:05;;;;;;;4.15;2.37;;;;;;;16.32;66.29;101514.16;1694094;83;25427;-56
2022/06/18 04:56:32;;;;;;;4.70;2.60;;;;;;;16.34;66.28;101521.66;1693257;82;25967;-56
2022/06/18 04:58:59;;;;;;;4.83;2.42;;;;;;;16.38;66.42;101525.78;1765392;80;25727;-56
2022/06/18 05:01:29;;;;;;;5.10;2.20;;;;;;;16.46;66.09;101530.41;1758235;79;27474;-57
2022/06/18 05:03:59;;;;;;;6.40;2.87;;;;;;;16.54;65.84;101535.91;1762400;80;25867;-56
2022/06/18 05:06:36;;;;;;;3.87;2.52;;;;;;;16.63;65.79;101531.93;1774244;80;25725;-56
2022/06/18 05:09:05;;;;;;;7.60;2.80;;;;;;;16.72;65.68;101537.26;1753821;80;26894;-56
2022/06/18 05:11:39;;;;;;;7.87;2.25;;;;;;;16.79;65.45;101546.13;1696093;80;25919;-56
2022/06/18 05:14:11;;;;;;;11.85;5.53;;;;;;;16.72;65.71;101541.82;1753509;80;27487;-57
2022/06/18 05:16:40;;;;;;;6.03;2.67;;;;;;;16.67;65.43;101537.38;1752692;80;27277;-56
2022/06/18 05:19:08;;;;;;;6.78;2.90;;;;;;;16.69;65.70;101538.08;1758684;80;25730;-56
2022/06/18 05:21:36;;;;;;;5.72;2.90;;;;;;;16.73;65.78;101536.73;1776667;80;26108;-56
2022/06/18 05:24:07;;;;;;;5.87;2.60;;;;;;;16.79;65.77;101543.41;1754744;80;26608;-57
2022/06/18 05:26:34;;;;;;;8.05;2.90;;;;;;;16.83;65.48;101535.30;1776950;80;28326;-57
2022/06/18 05:29:02;;;;;;;10.00;2.77;;;;;;;16.90;65.29;101545.87;1755418;80;25772;-56
2022/06/18 05:31:29;;;;;;;6.42;2.75;;;;;;;16.98;65.20;101532.89;1766242;80;25728;-56
2022/06/18 05:33:56;;;;;;;4.87;2.30;;;;;;;17.09;65.44;101539.39;1768369;80;26108;-57
2022/06/18 05:36:23;;;;;;;6.85;2.85;;;;;;;17.18;64.94;101551.19;1757301;80;25812;-56
2022/06/18 05:38:53;;;;;;;6.33;2.37;;;;;;;17.17;64.45;101546.23;1770041;80;27515;-56
2022/06/18 05:41:20;;;;;;;4.95;2.50;;;;;;;17.11;64.32;101546.89;1768983;80;26198;-56
2022/06/18 05:43:47;;;;;;;8.38;3.08;;;;;;;17.09;64.46;101542.11;1775544;80;25706;-57
2022/06/18 05:46:14;;;;;;;6.45;2.52;;;;;;;17.19;65.09;101542.02;1773012;80;26917;-56
2022/06/18 05:48:41;;;;;;;12.15;3.17;;;;;;;17.30;64.81;101540.88;1754695;79;25767;-56
2022/06/18 05:51:10;;;;;;;5.45;2.77;;;;;;;17.32;64.02;101536.98;1777017;80;27486;-57
2022/06/18 05:53:37;;;;;;;7.67;2.75;;;;;;;17.36;63.95;101540.22;1776471;80;26148;-56
2022/06/18 05:56:20;;;;;;;;;;;;;;;17.41;63.84;101540.61;1665236;84;25736;-56
2022/06/18 05:58:57;;;;;;;4.78;2.45;;;;;;;17.50;64.02;101545.56;1666416;81;26160;-56
2022/06/18 06:01:25;;;;;;;6.47;2.83;;;;;;;17.60;63.83;101538.66;1705943;82;25541;-57
2022/06/18 06:03:52;;;;;;;6.28;2.62;;;;;;;17.71;63.99;101536.97;1712107;82;27051;-57
2022/06/18 06:06:19;;;;;;;10.18;2.92;;;;;;;17.87;63.47;101538.91;1714093;83;26161;-55
2022/06/18 06:08:47;;;;;;;6.85;2.40;;;;;;;17.98;63.29;101548.65;1774917;79;25664;-56
2022/06/18 06:11:29;;;;;;;3.72;2.30;;;;;;;18.08;63.07;101545.28;1756698;80;26101;-56
2022/06/18 06:14:01;;;;;;;8.53;3.10;;;;;;;18.14;62.41;101554.65;1765852;80;25785;-58
2022/06/18 06:16:29;;;;;;;10.15;2.87;;;;;;;18.09;61.95;101551.59;1768081;80;27398;-56
2022/06/18 06:18:58;;;;;;;10.82;2.60;;;;;;;18.11;62.14;101558.56;1765099;79;25795;-57
2022/06/18 06:21:24;;;;;;;8.95;2.70;;;;;;;18.20;61.99;101553.97;1775162;80;25984;-56
2022/06/18 06:23:51;;;;;;;7.08;2.60;;;;;;;18.36;61.58;101553.16;1755084;80;26162;-57
2022/06/18 06:26:29;;;;;;;7.42;3.00;;;;;;;18.43;61.32;101555.53;1756702;80;25756;-57
2022/06/18 06:28:56;;;;;;;9.73;2.92;;;;;;;18.57;60.55;101550.45;1763385;80;27296;-56
2022/06/18 06:31:23;;;;;;;14.28;2.65;;;;;;;18.61;60.56;101551.80;1755838;79;25708;-56
2022/06/18 06:33:50;;;;;;;8.08;2.47;;;;;;;18.70;60.68;101553.50;1752804;80;25719;-57
2022/06/18 06:36:17;;;;;;;10.32;3.05;;;;;;;18.84;60.61;101549.75;1752262;80;26152;-56
2022/06/18 06:38:44;;;;;;;4.95;2.30;;;;;;;18.92;59.90;101543.80;1764594;80;25459;-57
2022/06/18 06:41:25;;;;;;;5.45;1.92;;;;;;;19.00;59.72;101544.83;1757726;79;27514;-57
2022/06/18 06:43:52;;;;;;;3.22;2.22;;;;;;;19.11;59.26;101536.80;1762552;80;25835;-56
2022/06/18 06:46:20;;;;;;;5.10;2.12;;;;;;;19.23;58.92;101532.65;1768150;80;25929;-57
2022/06/18 06:48:47;;;;;;;4.35;1.95;;;;;;;19.35;58.63;101534.52;1768184;79;26101;-57
2022/06/18 06:51:18;;;;;;;3.52;2.02;;;;;;;19.45;57.76;101531.07;1758853;79;25761;-57
2022/06/18 06:53:45;;;;;;;10.25;2.40;;;;;;;19.54;57.26;101530.51;1772291;80;27467;-58
2022/06/18 06:59:00;;;;;;;4.20;2.58;;;;;;;19.86;56.59;101533.62;1780415;80;25476;-57
2022/06/18 07:01:27;;;;;;;12.53;2.17;;;;;;;20.04;55.83;101530.30;1757811;80;26653;-57
2022/06/18 07:03:55;;;;;;;8.98;1.95;;;;;;;20.29;53.43;101524.13;1729194;80;25805;-57
2022/06/18 07:06:22;;;;;;;7.55;2.00;;;;;;;20.42;53.04;101518.05;1736365;80;28489;-56
2022/06/18 07:08:50;;;;;;;7.67;2.20;;;;;;;20.58;52.81;101518.43;1754798;80;25821;-56
2022/06/18 07:11:18;;;;;;;5.00;1.70;;;;;;;20.82;52.25;101524.23;1758615;80;25879;-57
2022/06/18 07:13:45;;;;;;;5.70;1.62;;;;;;;20.93;51.15;101529.22;1777292;80;26753;-56
2022/06/18 07:16:14;;;;;;;5.62;1.70;;;;;;;21.02;49.87;101517.69;1759085;79;25951;-58
2022/06/18 07:18:42;;;;;;;11.25;2.17;;;;;;;21.08;50.18;101521.03;1777726;80;28166;-57
2022/06/18 07:21:15;;;;;;;4.75;2.55;;;;;;;21.23;49.68;101518.84;1734417;79;25675;-56
2022/06/18 07:23:43;;;;;;;3.95;2.55;;;;;;;21.37;49.67;101525.34;1770671;79;25906;-56
2022/06/18 07:26:15;;;;;;;2.92;1.87;;;;;;;21.55;48.59;101517.59;1754635;78;26093;-57
2022/06/18 07:28:43;;;;;;;2.90;1.40;;;;;;;21.72;48.49;101526.98;1752638;80;25758;-56
2022/06/18 07:31:27;;;;;;;5.28;1.90;;;;;;;21.71;48.74;101538.44;1758623;80;28129;-56
2022/06/18 07:33:55;;;;;;;7.65;2.60;;;;;;;21.66;47.81;101530.47;1761322;80;25835;-56
2022/06/18 07:36:23;;;;;;;5.53;1.85;;;;;;;21.66;47.86;101529.09;1768414;80;25532;-56
2022/06/18 07:38:49;;;;;;;4.90;2.00;;;;;;;21.67;47.31;101534.41;1767324;80;26928;-57
2022/06/18 07:41:19;;;;;;;7.17;1.40;;;;;;;21.65;47.09;101532.37;1756784;80;26023;-56
2022/06/18 07:43:53;;;;;;;4.67;2.15;;;;;;;21.65;46.65;101538.37;1774673;80;27731;-57
2022/06/18 07:46:21;;;;;;;28.02;2.45;;;;;;;21.70;46.82;101535.37;1754839;80;25918;-56
2022/06/18 07:48:48;;;;;;;9.40;2.00;;;;;;;21.80;46.64;101533.72;1762753;80;25509;-56
2022/06/18 07:51:15;;;;;;;5.50;1.75;;;;;;;21.98;46.42;101535.18;1714452;82;26143;-57
2022/06/18 07:53:43;;;;;;;5.53;1.70;;;;;;;22.18;45.28;101525.80;1710350;83;26469;-57
2022/06/18 07:56:16;;;;;;;6.70;1.77;;;;;;;22.34;44.64;101534.29;1763566;80;27624;-56
2022/06/18 07:58:43;;;;;;;5.53;2.58;;;;;;;22.40;44.87;101525.84;1755196;80;26056;-56
2022/06/18 08:01:10;;;;;;;4.00;1.75;;;;;;;22.51;44.73;101522.04;1768279;80;25791;-56
2022/06/18 08:03:38;;;;;;;3.27;1.37;;;;;;;22.66;44.13;101527.95;1716139;82;25988;-56
2022/06/18 08:06:08;;;;;;;2.72;1.40;;;;;;;22.68;44.54;101520.92;1713876;82;25742;-56
2022/06/18 08:08:36;;;;;;;8.65;1.80;;;;;;;22.73;44.72;101516.50;1701618;82;27530;-56
2022/06/18 08:11:07;;;;;;;10.72;1.70;;;;;;;22.79;44.54;101524.46;1753599;80;25787;-56
2022/06/18 08:13:35;;;;;;;5.08;1.45;;;;;;;22.78;44.09;101520.89;1758869;80;26464;-57
2022/06/18 08:16:04;;;;;;;4.92;1.10;;;;;;;22.78;43.58;101517.28;1758102;80;26109;-56
2022/06/18 08:18:31;;;;;;;3.62;1.30;;;;;;;22.87;42.89;101513.88;1757627;80;25486;-56
2022/06/18 08:21:21;;;;;;;10.48;2.02;;;;;;;22.92;43.49;101510.86;1781559;80;27464;-56
2022/06/18 08:23:51;;;;;;;4.92;1.40;;;;;;;23.05;43.52;101517.46;1767787;80;25782;-57
2022/06/18 08:26:18;;;;;;;1.57;1.20;;;;;;;23.18;42.63;101514.85;1754056;80;25774;-57
2022/06/18 08:28:45;;;;;;;2.55;1.55;;;;;;;23.20;42.46;101520.12;1760242;80;26230;-57
2022/06/18 08:31:13;;;;;;;3.47;1.02;;;;;;;23.32;42.17;101514.91;1781681;80;25877;-57
2022/06/18 08:33:40;;;;;;;5.08;1.72;;;;;;;23.32;41.72;101513.03;1775278;80;28273;-56
2022/06/18 08:36:11;;;;;;;3.27;2.58;;;;;;;23.43;42.03;101513.83;1754060;80;25735;-56
2022/06/18 08:38:41;;;;;;;4.92;1.72;;;;;;;23.61;40.79;101509.69;1754653;80;25776;-56
2022/06/18 08:41:42;;;;;;;4.12;1.70;;;;;;;23.75;40.48;101508.66;1754135;80;27150;-57
2022/06/18 08:45:02;;;;;;;3.17;1.62;;;;;;;23.85;40.21;101515.67;1768163;80;25982;-57
2022/06/18 08:48:12;;;;;;;3.75;1.15;;;;;;;23.89;39.79;101512.84;1755760;80;27468;-57
2022/06/18 08:51:02;;;;;;;1.82;1.07;;;;;;;24.02;40.13;101512.89;1760005;79;25851;-57
2022/06/18 08:53:55;;;;;;;3.22;0.95;;;;;;;24.21;38.83;101505.72;1750189;79;25739;-57
2022/06/18 08:56:48;;;;;;;3.35;0.90;;;;;;;24.34;38.17;101515.05;1757824;79;26121;-57
2022/06/18 08:59:49;;;;;;;6.75;1.72;;;;;;;24.48;37.41;101511.78;1767074;80;27265;-57
2022/06/18 09:02:42;;;;;;;12.65;1.25;;;;;;;24.65;37.42;101504.80;1765530;80;28327;-56
2022/06/18 09:05:35;;;;;;;5.05;1.40;;;;;;;24.80;36.08;101514.25;1761270;80;25983;-57
2022/06/18 09:08:35;;;;;;;10.53;1.20;;;;;;;25.03;36.16;101501.92;1754032;80;25949;-56
2022/06/18 09:11:15;;;;;;;3.60;1.02;;;;;;;25.30;35.91;101509.59;1753726;80;26110;-57
2022/06/18 09:13:54;;;;;;;2.65;1.30;;;;;;;25.27;35.31;101503.12;1773626;80;25774;-56
2022/06/18 09:16:24;;;;;;;5.62;1.22;;;;;;;25.23;35.86;101496.38;1751996;80;27522;-57
2022/06/18 09:18:55;;;;;;;4.12;1.15;;;;;;;25.36;36.27;101507.02;1774304;80;25743;-56
2022/06/18 09:21:33;;;;;;;8.13;1.40;;;;;;;25.50;35.82;101503.72;1754302;80;25962;-56
2022/06/18 09:24:05;;;;;;;9.60;1.47;;;;;;;25.75;35.79;101499.69;1755035;80;26170;-56
2022/06/18 09:26:45;;;;;;;6.33;0.90;;;;;;;26.01;35.51;101497.84;1765716;80;25891;-56
2022/06/18 09:29:38;;;;;;;3.87;1.42;;;;;;;26.36;34.00;101492.72;1758256;80;28460;-56
2022/06/18 09:32:20;;;;;;;3.35;1.10;;;;;;;26.47;34.47;101497.20;1770270;80;34735;-56
2022/06/18 09:35:22;;;;;;;3.17;1.20;;;;;;;26.56;33.74;101498.09;1762483;80;25818;-56
2022/06/18 09:38:19;;;;;;;5.08;1.98;;;;;;;26.70;33.85;101489.67;1753105;80;26814;-56
2022/06/18 09:40:51;;;;;;;4.33;0.90;;;;;;;27.03;33.45;101483.85;1758210;80;25870;-56
2022/06/18 09:43:29;;;;;;;3.50;1.30;;;;;;;27.24;33.39;101494.66;1753800;80;27547;-56
2022/06/18 09:46:01;;;;;;;5.35;1.32;;;;;;;27.37;33.42;101487.61;1767250;80;25813;-56
2022/06/18 09:48:29;;;;;;;11.07;1.70;;;;;;;27.28;33.01;101496.73;1759995;79;25772;-57
2022/06/18 09:51:03;;;;;;;4.05;1.00;;;;;;;27.06;33.03;101481.72;1757341;79;26108;-56
2022/06/18 09:53:40;;;;;;;14.95;1.17;;;;;;;27.04;33.69;101490.20;1779685;80;25731;-56
2022/06/18 09:56:12;;;;;;;4.58;1.50;;;;;;;27.52;32.35;101478.96;1772011;80;27468;-56
2022/06/18 09:58:58;;;;;;;7.95;1.00;;;;;;;27.87;31.54;101481.55;1764620;80;25764;-56
2022/06/18 10:01:40;;;;;;;4.62;1.10;;;;;;;28.16;31.58;101477.64;1756779;79;26473;-56
2022/06/18 10:06:58;;;;;;;3.17;0.75;;;;;;;28.54;30.67;101470.84;1718889;82;25541;-56
2022/06/18 10:09:47;;;;;;;1.80;1.15;;;;;;;28.54;31.08;101468.08;1709932;82;27630;-57
2022/06/18 10:12:28;;;;;;;10.03;1.15;;;;;;;28.87;30.89;101467.47;1714175;83;25718;-57
2022/06/18 10:15:00;;;;;;;7.45;1.00;;;;;;;28.63;29.60;101473.55;1710672;83;25817;-57
2022/06/18 10:18:26;;;;;;;8.65;1.10;;;;;;;28.39;29.54;101463.00;1717353;83;26254;-56
2022/06/18 10:21:26;;;;;;;1.20;0.72;;;;;;;28.54;29.28;101466.13;1715567;82;25760;-57
2022/06/18 10:24:20;;;;;;;1.30;0.85;;;;;;;28.89;28.35;101458.94;1716816;81;27482;-57
2022/06/18 10:27:01;;;;;;;1.72;0.82;;;;;;;28.63;29.85;101472.17;1725458;80;25729;-56
2022/06/18 10:30:07;;;;;;;8.73;1.10;;;;;;;28.39;30.25;101470.75;1775223;80;25777;-57
2022/06/18 10:32:54;;;;;;;9.13;1.75;;;;;;;28.26;30.17;101474.58;1777475;80;26102;-56
2022/06/18 10:35:39;;;;;;;9.98;1.85;;;;;;;27.94;30.77;101472.61;1761255;80;25715;-56
2022/06/18 10:38:26;;;;;;;9.10;1.22;;;;;;;27.51;31.37;101478.66;1767126;80;27498;-57
2022/06/18 10:41:32;;;;;;;7.50;1.00;;;;;;;27.45;31.26;101473.52;1781589;80;26189;-57
2022/06/18 10:44:26;;;;;;;2.92;1.10;;;;;;;28.04;31.71;101466.52;1718769;82;25780;-56
2022/06/18 10:47:06;;;;;;;12.73;1.82;;;;;;;29.59;29.63;101462.62;1701619;81;26129;-57
2022/06/18 10:49:33;;;;;;;4.65;1.40;;;;;;;30.83;28.32;101466.70;1701885;82;25783;-57
2022/06/18 10:52:02;;;;;;;2.35;1.20;;;;;;;31.68;27.25;101465.85;1689010;82;27513;-57
2022/06/18 10:54:34;;;;;;;2.33;1.00;;;;;;;32.37;26.39;101469.01;1660868;82;25490;-56
2022/06/18 10:57:04;;;;;;;2.65;0.80;;;;;;;33.07;26.11;101468.91;1696378;84;25812;-56
2022/06/18 10:59:35;;;;;;;4.42;0.90;;;;;;;32.48;25.57;101471.88;1770792;80;26972;-56
2022/06/18 11:02:13;;;;;;;1.50;0.80;;;;;;;31.68;25.55;101466.41;1752955;79;25459;-56
2022/06/18 11:04:41;;;;;;;2.40;0.62;;;;;;;31.80;25.89;101460.69;1761337;80;27530;-57
2022/06/18 11:07:12;;;;;;;2.47;0.78;;;;;;;32.43;25.09;101456.80;1754180;80;25488;-56
2022/06/18 11:09:50;;;;;;;2.45;1.00;;;;;;;33.34;23.95;101460.13;1728578;81;25884;-56
2022/06/18 11:12:28;;;;;;;4.28;1.00;;;;;;;33.51;22.93;101446.80;1721727;82;26531;-57
2022/06/18 11:14:56;;;;;;;4.45;1.20;;;;;;;32.76;23.68;101453.41;1704207;81;26170;-57
2022/06/18 11:17:31;;;;;;;4.28;0.80;;;;;;;32.11;24.28;101454.00;1697219;83;27338;-57
2022/06/18 11:20:23;;;;;;;1.75;0.80;;;;;;;31.77;24.21;101449.55;1714293;82;25892;-57
2022/06/18 11:23:03;;;;;;;4.83;1.02;;;;;;;30.79;24.86;101448.31;1712808;83;25948;-56
2022/06/18 11:25:46;;;;;;;6.75;1.07;;;;;;;30.25;25.55;101455.25;1725386;82;26114;-56
2022/06/18 11:28:16;;;;;;;;;;;;;;;30.16;26.18;101449.83;1726447;81;25805;-56
2022/06/18 11:30:46;;;;;;;9.33;0.95;;;;;;;30.04;26.23;101457.37;1692162;81;27593;-56
2022/06/18 11:33:41;;;;;;;4.33;0.90;;;;;;;30.07;26.74;101448.55;1692347;81;25773;-56
2022/06/18 11:36:19;;;;;;;1.75;0.70;;;;;;;29.81;26.87;101452.20;1752495;79;25777;-57
2022/06/18 11:38:59;;;;;;;4.30;0.93;;;;;;;29.33;27.63;101462.66;1768187;80;26082;-56
2022/06/18 11:41:43;;;;;;;3.33;1.20;;;;;;;29.13;27.79;101463.91;1754352;80;25717;-56
2022/06/18 11:44:30;;;;;;;5.97;0.95;;;;;;;29.01;28.00;101461.13;1754447;80;27461;-57
2022/06/18 11:47:08;;;;;;;3.35;0.88;;;;;;;28.80;28.10;101456.23;1759552;80;26238;-57
2022/06/18 11:49:40;;;;;;;5.40;1.10;;;;;;;28.88;28.10;101455.87;1768041;80;25743;-57
2022/06/18 11:52:14;;;;;;;1.30;1.00;;;;;;;29.29;27.76;101452.58;1753933;80;54793;-56
2022/06/18 11:55:06;;;;;;;9.68;1.32;;;;;;;30.21;27.13;101445.73;1765130;80;25783;-56
2022/06/18 11:57:41;;;;;;;13.25;0.90;;;;;;;31.19;26.40;101449.97;1711861;82;28143;-56
2022/06/18 12:00:20;;;;;;;4.78;0.90;;;;;;;32.53;24.87;101450.48;1701307;82;25872;-57
2022/06/18 12:03:01;;;;;;;4.33;1.15;;;;;;;33.63;24.17;101447.93;1763318;80;25908;-57
2022/06/18 12:05:36;;;;;;;4.03;1.02;;;;;;;34.66;22.59;101439.28;1735436;80;26017;-57